sensor_id;sensor_type;location;lat;lon;timestamp;pressure;altitude;pressure_sealevel;temperature;humidity
12868;BME280;33517;49.866;8.320;2023-08-12T00:01:34;100630.91;;;20.73;79.54
12868;BME280;33517;49.866;8.320;2023-08-12T00:04:27;100625.94;;;20.76;79.66
12868;BME280;33517;49.866;8.320;2023-08-12T00:07:20;100624.66;;;20.79;80.04
12868;BME280;33517;49.866;8.320;2023-08-12T00:10:12;100621.97;;;20.79;79.93
12868;BME280;33517;49.866;8.320;2023-08-12T00:13:04;100618.13;;;20.75;80.61
12868;BME280;33517;49.866;8.320;2023-08-12T00:15:56;100618.28;;;20.80;80.53
12868;BME280;33517;49.866;8.320;2023-08-12T00:18:48;100612.47;;;20.83;80.08
12868;BME280;33517;49.866;8.320;2023-08-12T00:21:40;100606.88;;;20.84;80.22
12868;BME280;33517;49.866;8.320;2023-08-12T00:24:33;100595.75;;;20.87;80.38
12868;BME280;33517;49.866;8.320;2023-08-12T00:27:25;100603.53;;;20.89;80.22
12868;BME280;33517;49.866;8.320;2023-08-12T00:30:17;100588.88;;;20.91;80.22
12868;BME280;33517;49.866;8.320;2023-08-12T00:33:09;100587.84;;;20.92;80.47
12868;BME280;33517;49.866;8.320;2023-08-12T00:36:01;100583.44;;;20.98;80.63
12868;BME280;33517;49.866;8.320;2023-08-12T00:38:53;100579.53;;;21.00;80.67
12868;BME280;33517;49.866;8.320;2023-08-12T00:41:46;100583.13;;;21.06;80.83
12868;BME280;33517;49.866;8.320;2023-08-12T00:44:38;100580.81;;;21.09;80.38
12868;BME280;33517;49.866;8.320;2023-08-12T00:47:30;100582.56;;;21.04;81.65
12868;BME280;33517;49.866;8.320;2023-08-12T00:50:22;100582.25;;;20.94;82.35
12868;BME280;33517;49.866;8.320;2023-08-12T00:53:15;100573.69;;;21.03;81.61
12868;BME280;33517;49.866;8.320;2023-08-12T00:56:07;100567.91;;;21.06;81.33
12868;BME280;33517;49.866;8.320;2023-08-12T00:59:01;100569.66;;;21.13;80.79
12868;BME280;33517;49.866;8.320;2023-08-12T01:01:56;100565.59;;;21.10;80.83
12868;BME280;33517;49.866;8.320;2023-08-12T01:04:48;100575.22;;;21.11;80.98
12868;BME280;33517;49.866;8.320;2023-08-12T01:07:40;100578.50;;;21.13;80.90
12868;BME280;33517;49.866;8.320;2023-08-12T01:10:34;100578.97;;;21.10;80.81
12868;BME280;33517;49.866;8.320;2023-08-12T01:13:32;100587.00;;;21.10;81.11
12868;BME280;33517;49.866;8.320;2023-08-12T01:16:30;100583.50;;;21.09;81.21
12868;BME280;33517;49.866;8.320;2023-08-12T01:19:29;100587.66;;;21.05;81.56
12868;BME280;33517;49.866;8.320;2023-08-12T01:22:23;100585.34;;;21.09;81.54
12868;BME280;33517;49.866;8.320;2023-08-12T01:25:19;100595.25;;;21.08;81.58
12868;BME280;33517;49.866;8.320;2023-08-12T01:28:10;100600.97;;;21.12;81.40
12868;BME280;33517;49.866;8.320;2023-08-12T01:31:06;100595.38;;;21.14;82.00
12868;BME280;33517;49.866;8.320;2023-08-12T01:34:04;100593.09;;;20.99;83.36
12868;BME280;33517;49.866;8.320;2023-08-12T01:37:00;100582.41;;;20.99;83.26
12868;BME280;33517;49.866;8.320;2023-08-12T01:39:59;100574.28;;;21.05;82.87
12868;BME280;33517;49.866;8.320;2023-08-12T01:42:53;100578.97;;;21.10;82.77
12868;BME280;33517;49.866;8.320;2023-08-12T01:45:46;100579.06;;;21.15;82.72
12868;BME280;33517;49.866;8.320;2023-08-12T01:48:38;100584.44;;;21.15;84.04
12868;BME280;33517;49.866;8.320;2023-08-12T01:51:30;100585.59;;;21.19;83.54
12868;BME280;33517;49.866;8.320;2023-08-12T01:54:22;100588.44;;;21.24;83.40
12868;BME280;33517;49.866;8.320;2023-08-12T01:57:14;100578.50;;;21.25;83.47
12868;BME280;33517;49.866;8.320;2023-08-12T02:00:08;100582.38;;;21.29;83.25
12868;BME280;33517;49.866;8.320;2023-08-12T02:03:00;100584.00;;;21.30;83.52
12868;BME280;33517;49.866;8.320;2023-08-12T02:05:52;100582.00;;;21.25;84.19
12868;BME280;33517;49.866;8.320;2023-08-12T02:08:44;100584.34;;;21.22;84.41
12868;BME280;33517;49.866;8.320;2023-08-12T02:11:36;100590.16;;;21.19;84.88
12868;BME280;33517;49.866;8.320;2023-08-12T02:14:28;100600.16;;;21.23;84.94
12868;BME280;33517;49.866;8.320;2023-08-12T02:17:21;100606.06;;;21.14;85.52
12868;BME280;33517;49.866;8.320;2023-08-12T02:20:13;100602.59;;;21.25;85.38
12868;BME280;33517;49.866;8.320;2023-08-12T02:23:05;100623.59;;;21.28;85.78
12868;BME280;33517;49.866;8.320;2023-08-12T02:25:57;100637.56;;;21.30;85.72
12868;BME280;33517;49.866;8.320;2023-08-12T02:28:49;100649.06;;;21.30;85.26
12868;BME280;33517;49.866;8.320;2023-08-12T02:31:41;100652.44;;;21.26;86.82
12868;BME280;33517;49.866;8.320;2023-08-12T02:34:34;100658.44;;;21.09;89.56
12868;BME280;33517;49.866;8.320;2023-08-12T02:37:26;100665.28;;;21.05;90.95
12868;BME280;33517;49.866;8.320;2023-08-12T02:40:18;100658.34;;;20.98;92.81
12868;BME280;33517;49.866;8.320;2023-08-12T02:43:10;100656.09;;;20.83;94.68
12868;BME280;33517;49.866;8.320;2023-08-12T02:46:02;100651.13;;;20.69;96.33
12868;BME280;33517;49.866;8.320;2023-08-12T02:48:54;100641.63;;;20.55;99.12
12868;BME280;33517;49.866;8.320;2023-08-12T02:51:47;100636.53;;;20.53;100.00
12868;BME280;33517;49.866;8.320;2023-08-12T02:54:39;100623.50;;;20.57;100.00
12868;BME280;33517;49.866;8.320;2023-08-12T02:57:31;100617.03;;;20.64;100.00
12868;BME280;33517;49.866;8.320;2023-08-12T03:00:23;100614.06;;;20.72;100.00
12868;BME280;33517;49.866;8.320;2023-08-12T03:03:15;100613.81;;;20.74;100.00
12868;BME280;33517;49.866;8.320;2023-08-12T03:06:07;100610.31;;;20.73;100.00
12868;BME280;33517;49.866;8.320;2023-08-12T03:09:00;100618.94;;;20.75;100.00
12868;BME280;33517;49.866;8.320;2023-08-12T03:11:52;100606.38;;;20.76;100.00
12868;BME280;33517;49.866;8.320;2023-08-12T03:14:44;100610.78;;;20.70;100.00
12868;BME280;33517;49.866;8.320;2023-08-12T03:17:36;100616.25;;;20.75;100.00
12868;BME280;33517;49.866;8.320;2023-08-12T03:20:29;100608.72;;;20.72;100.00
12868;BME280;33517;49.866;8.320;2023-08-12T03:23:21;100596.13;;;20.73;100.00
12868;BME280;33517;49.866;8.320;2023-08-12T03:26:14;100589.16;;;20.72;100.00
12868;BME280;33517;49.866;8.320;2023-08-12T03:29:06;100569.38;;;20.73;100.00
12868;BME280;33517;49.866;8.320;2023-08-12T03:31:58;100554.44;;;20.83;100.00
12868;BME280;33517;49.866;8.320;2023-08-12T03:34:50;100559.22;;;20.93;100.00
12868;BME280;33517;49.866;8.320;2023-08-12T03:37:42;100566.66;;;20.91;100.00
12868;BME280;33517;49.866;8.320;2023-08-12T03:40:37;100558.31;;;20.99;100.00
12868;BME280;33517;49.866;8.320;2023-08-12T03:43:31;100555.91;;;21.09;100.00
12868;BME280;33517;49.866;8.320;2023-08-12T03:46:24;100550.69;;;21.14;100.00
12868;BME280;33517;49.866;8.320;2023-08-12T03:49:16;100551.97;;;21.23;100.00
12868;BME280;33517;49.866;8.320;2023-08-12T03:52:08;100543.03;;;21.29;100.00
12868;BME280;33517;49.866;8.320;2023-08-12T03:54:59;100546.28;;;21.31;100.00
12868;BME280;33517;49.866;8.320;2023-08-12T03:58:00;100565.28;;;21.30;100.00
12868;BME280;33517;49.866;8.320;2023-08-12T04:00:55;100562.56;;;21.18;100.00
12868;BME280;33517;49.866;8.320;2023-08-12T04:03:47;100561.41;;;21.14;100.00
12868;BME280;33517;49.866;8.320;2023-08-12T04:06:39;100572.81;;;21.21;100.00
12868;BME280;33517;49.866;8.320;2023-08-12T04:09:30;100577.81;;;21.18;100.00
12868;BME280;33517;49.866;8.320;2023-08-12T04:12:22;100576.22;;;21.28;100.00
12868;BME280;33517;49.866;8.320;2023-08-12T04:15:14;100582.13;;;21.30;100.00
12868;BME280;33517;49.866;8.320;2023-08-12T04:18:08;100577.50;;;21.37;100.00
12868;BME280;33517;49.866;8.320;2023-08-12T04:21:00;100567.81;;;21.36;100.00
12868;BME280;33517;49.866;8.320;2023-08-12T04:23:52;100566.66;;;21.32;100.00
12868;BME280;33517;49.866;8.320;2023-08-12T04:26:43;100570.63;;;21.30;99.60
12868;BME280;33517;49.866;8.320;2023-08-12T04:29:35;100574.09;;;21.30;99.38
12868;BME280;33517;49.866;8.320;2023-08-12T04:32:27;100578.66;;;21.30;98.95
12868;BME280;33517;49.866;8.320;2023-08-12T04:35:21;100562.34;;;21.31;99.03
12868;BME280;33517;49.866;8.320;2023-08-12T04:38:13;100563.88;;;21.39;98.85
12868;BME280;33517;49.866;8.320;2023-08-12T04:41:06;100567.72;;;21.43;98.10
12868;BME280;33517;49.866;8.320;2023-08-12T04:43:57;100561.09;;;21.45;98.07
12868;BME280;33517;49.866;8.320;2023-08-12T04:46:49;100560.84;;;21.47;97.71
12868;BME280;33517;49.866;8.320;2023-08-12T04:49:41;100562.72;;;21.46;97.31
12868;BME280;33517;49.866;8.320;2023-08-12T04:52:35;100558.88;;;21.42;97.09
12868;BME280;33517;49.866;8.320;2023-08-12T04:55:27;100562.25;;;21.38;96.81
12868;BME280;33517;49.866;8.320;2023-08-12T04:58:19;100552.00;;;21.35;96.80
12868;BME280;33517;49.866;8.320;2023-08-12T05:01:11;100548.97;;;21.43;96.99
12868;BME280;33517;49.866;8.320;2023-08-12T05:04:03;100556.53;;;21.46;97.40
12868;BME280;33517;49.866;8.320;2023-08-12T05:06:55;100550.25;;;21.29;100.00
12868;BME280;33517;49.866;8.320;2023-08-12T05:09:48;100545.81;;;21.23;100.00
12868;BME280;33517;49.866;8.320;2023-08-12T05:12:40;100541.63;;;21.27;100.00
12868;BME280;33517;49.866;8.320;2023-08-12T05:15:32;100539.28;;;21.30;99.78
12868;BME280;33517;49.866;8.320;2023-08-12T05:18:27;100545.47;;;21.31;99.50
12868;BME280;33517;49.866;8.320;2023-08-12T05:21:20;100549.91;;;21.37;98.97
12868;BME280;33517;49.866;8.320;2023-08-12T05:24:12;100553.66;;;21.36;99.53
12868;BME280;33517;49.866;8.320;2023-08-12T05:27:05;100557.09;;;21.36;99.15
12868;BME280;33517;49.866;8.320;2023-08-12T05:29:57;100557.84;;;21.43;98.94
12868;BME280;33517;49.866;8.320;2023-08-12T05:32:49;100556.88;;;21.61;98.38
12868;BME280;33517;49.866;8.320;2023-08-12T05:35:41;100555.75;;;21.80;97.90
12868;BME280;33517;49.866;8.320;2023-08-12T05:38:33;100551.53;;;21.95;97.49
12868;BME280;33517;49.866;8.320;2023-08-12T05:41:25;100549.56;;;22.03;96.88
12868;BME280;33517;49.866;8.320;2023-08-12T05:44:18;100552.69;;;21.99;97.74
12868;BME280;33517;49.866;8.320;2023-08-12T05:47:10;100558.03;;;22.11;97.89
12868;BME280;33517;49.866;8.320;2023-08-12T05:50:02;100559.25;;;22.32;98.30
12868;BME280;33517;49.866;8.320;2023-08-12T05:52:54;100552.91;;;22.49;98.67
12868;BME280;33517;49.866;8.320;2023-08-12T05:55:46;100547.28;;;23.07;97.78
12868;BME280;33517;49.866;8.320;2023-08-12T05:58:38;100552.41;;;25.15;89.98
12868;BME280;33517;49.866;8.320;2023-08-12T06:01:32;100569.75;;;28.64;74.77
12868;BME280;33517;49.866;8.320;2023-08-12T06:04:24;100570.31;;;30.61;67.69
12868;BME280;33517;49.866;8.320;2023-08-12T06:07:15;100583.47;;;31.74;62.86
12868;BME280;33517;49.866;8.320;2023-08-12T06:10:09;100579.97;;;32.55;61.14
12868;BME280;33517;49.866;8.320;2023-08-12T06:13:01;100582.13;;;31.72;63.39
12868;BME280;33517;49.866;8.320;2023-08-12T06:15:53;100577.47;;;30.34;66.11
12868;BME280;33517;49.866;8.320;2023-08-12T06:18:47;100572.16;;;32.63;60.12
12868;BME280;33517;49.866;8.320;2023-08-12T06:21:39;100574.66;;;33.61;56.41
12868;BME280;33517;49.866;8.320;2023-08-12T06:24:31;100572.91;;;33.96;54.49
12868;BME280;33517;49.866;8.320;2023-08-12T06:27:22;100586.31;;;34.06;53.40
12868;BME280;33517;49.866;8.320;2023-08-12T06:30:14;100580.22;;;34.17;52.27
12868;BME280;33517;49.866;8.320;2023-08-12T06:33:06;100585.16;;;35.32;48.49
12868;BME280;33517;49.866;8.320;2023-08-12T06:36:00;100593.25;;;35.91;47.81
12868;BME280;33517;49.866;8.320;2023-08-12T06:38:52;100592.88;;;37.54;44.61
12868;BME280;33517;49.866;8.320;2023-08-12T06:41:43;100589.84;;;34.54;50.76
12868;BME280;33517;49.866;8.320;2023-08-12T06:44:35;100584.88;;;31.08;57.59
12868;BME280;33517;49.866;8.320;2023-08-12T06:47:27;100577.28;;;29.16;63.35
12868;BME280;33517;49.866;8.320;2023-08-12T06:50:20;100576.72;;;28.21;65.30
12868;BME280;33517;49.866;8.320;2023-08-12T06:53:13;100586.03;;;27.29;67.81
12868;BME280;33517;49.866;8.320;2023-08-12T06:56:05;100587.06;;;26.73;68.81
12868;BME280;33517;49.866;8.320;2023-08-12T06:58:57;100579.81;;;27.04;68.80
12868;BME280;33517;49.866;8.320;2023-08-12T07:01:49;100586.22;;;28.18;65.54
12868;BME280;33517;49.866;8.320;2023-08-12T07:04:41;100589.06;;;28.42;64.96
12868;BME280;33517;49.866;8.320;2023-08-12T07:07:32;100585.03;;;28.93;64.29
12868;BME280;33517;49.866;8.320;2023-08-12T07:10:27;100598.22;;;32.41;55.67
12868;BME280;33517;49.866;8.320;2023-08-12T07:13:19;100599.81;;;30.49;60.56
12868;BME280;33517;49.866;8.320;2023-08-12T07:16:11;100596.59;;;30.24;60.23
12868;BME280;33517;49.866;8.320;2023-08-12T07:19:03;100583.31;;;28.64;64.22
12868;BME280;33517;49.866;8.320;2023-08-12T07:21:55;100589.56;;;27.30;68.30
12868;BME280;33517;49.866;8.320;2023-08-12T07:24:47;100584.41;;;26.88;70.27
12868;BME280;33517;49.866;8.320;2023-08-12T07:27:40;100572.50;;;26.89;69.82
12868;BME280;33517;49.866;8.320;2023-08-12T07:30:34;100576.59;;;27.27;69.41
12868;BME280;33517;49.866;8.320;2023-08-12T07:33:26;100569.03;;;27.19;69.42
12868;BME280;33517;49.866;8.320;2023-08-12T07:36:18;100578.19;;;26.83;70.53
12868;BME280;33517;49.866;8.320;2023-08-12T07:39:10;100587.50;;;26.55;72.07
12868;BME280;33517;49.866;8.320;2023-08-12T07:42:02;100583.00;;;26.76;71.98
12868;BME280;33517;49.866;8.320;2023-08-12T07:44:56;100582.28;;;27.56;70.12
12868;BME280;33517;49.866;8.320;2023-08-12T07:47:49;100580.84;;;30.87;61.31
12868;BME280;33517;49.866;8.320;2023-08-12T07:50:41;100594.78;;;30.38;62.27
12868;BME280;33517;49.866;8.320;2023-08-12T07:53:33;100588.75;;;31.52;59.40
12868;BME280;33517;49.866;8.320;2023-08-12T07:56:25;100596.91;;;34.47;52.96
12868;BME280;33517;49.866;8.320;2023-08-12T07:59:17;100581.59;;;33.59;54.53
12868;BME280;33517;49.866;8.320;2023-08-12T08:02:10;100579.59;;;31.48;57.47
12868;BME280;33517;49.866;8.320;2023-08-12T08:05:03;100587.28;;;30.30;60.49
12868;BME280;33517;49.866;8.320;2023-08-12T08:07:55;100589.81;;;29.69;62.15
12868;BME280;33517;49.866;8.320;2023-08-12T08:10:47;100578.91;;;31.06;59.55
12868;BME280;33517;49.866;8.320;2023-08-12T08:13:38;100587.81;;;35.74;49.39
12868;BME280;33517;49.866;8.320;2023-08-12T08:16:30;100608.19;;;38.48;43.19
12868;BME280;33517;49.866;8.320;2023-08-12T08:19:24;100602.91;;;37.18;45.12
12868;BME280;33517;49.866;8.320;2023-08-12T08:22:15;100590.97;;;35.39;46.97
12868;BME280;33517;49.866;8.320;2023-08-12T08:25:08;100586.66;;;37.57;44.53
12868;BME280;33517;49.866;8.320;2023-08-12T08:28:00;100586.28;;;35.48;47.83
12868;BME280;33517;49.866;8.320;2023-08-12T08:30:52;100598.34;;;32.99;51.04
12868;BME280;33517;49.866;8.320;2023-08-12T08:33:44;100584.31;;;31.24;55.91
12868;BME280;33517;49.866;8.320;2023-08-12T08:36:37;100584.41;;;30.82;56.89
12868;BME280;33517;49.866;8.320;2023-08-12T08:39:29;100574.97;;;31.30;56.36
12868;BME280;33517;49.866;8.320;2023-08-12T08:42:21;100570.38;;;31.12;56.33
12868;BME280;33517;49.866;8.320;2023-08-12T08:45:13;100574.25;;;34.72;50.08
12868;BME280;33517;49.866;8.320;2023-08-12T08:48:07;100557.66;;;37.80;43.99
12868;BME280;33517;49.866;8.320;2023-08-12T08:51:00;100562.16;;;34.90;47.99
12868;BME280;33517;49.866;8.320;2023-08-12T08:53:54;100550.53;;;33.24;51.25
12868;BME280;33517;49.866;8.320;2023-08-12T08:56:49;100551.38;;;31.26;54.84
12868;BME280;33517;49.866;8.320;2023-08-12T08:59:41;100555.53;;;30.30;57.96
12868;BME280;33517;49.866;8.320;2023-08-12T09:02:33;100559.88;;;30.50;57.81
12868;BME280;33517;49.866;8.320;2023-08-12T09:05:27;100566.03;;;30.74;57.67
12868;BME280;33517;49.866;8.320;2023-08-12T09:08:20;100571.47;;;36.24;46.65
12868;BME280;33517;49.866;8.320;2023-08-12T09:11:14;100572.66;;;36.64;44.81
12868;BME280;33517;49.866;8.320;2023-08-12T09:14:08;100570.88;;;34.83;46.05
12868;BME280;33517;49.866;8.320;2023-08-12T09:17:01;100560.59;;;35.06;46.13
12868;BME280;33517;49.866;8.320;2023-08-12T09:19:53;100555.88;;;34.72;47.82
12868;BME280;33517;49.866;8.320;2023-08-12T09:22:45;100557.72;;;32.62;49.98
12868;BME280;33517;49.866;8.320;2023-08-12T09:25:41;100549.09;;;35.84;43.66
12868;BME280;33517;49.866;8.320;2023-08-12T09:28:36;100550.59;;;34.50;45.66
12868;BME280;33517;49.866;8.320;2023-08-12T09:31:29;100539.44;;;33.82;47.51
12868;BME280;33517;49.866;8.320;2023-08-12T09:34:24;100540.56;;;32.97;48.39
12868;BME280;33517;49.866;8.320;2023-08-12T09:37:15;100536.56;;;31.64;52.32
12868;BME280;33517;49.866;8.320;2023-08-12T09:40:08;100543.97;;;31.91;52.05
12868;BME280;33517;49.866;8.320;2023-08-12T09:43:01;100534.00;;;32.63;50.27
12868;BME280;33517;49.866;8.320;2023-08-12T09:45:57;100548.16;;;31.83;52.43
12868;BME280;33517;49.866;8.320;2023-08-12T09:48:49;100556.00;;;31.44;53.02
12868;BME280;33517;49.866;8.320;2023-08-12T09:51:42;100572.03;;;30.34;55.55
12868;BME280;33517;49.866;8.320;2023-08-12T09:54:34;100577.50;;;29.24;58.23
12868;BME280;33517;49.866;8.320;2023-08-12T09:57:27;100600.78;;;28.28;61.35
12868;BME280;33517;49.866;8.320;2023-08-12T10:00:21;100619.56;;;27.49;64.79
12868;BME280;33517;49.866;8.320;2023-08-12T10:03:17;100641.63;;;26.80;69.27
12868;BME280;33517;49.866;8.320;2023-08-12T10:06:10;100631.97;;;25.91;78.11
12868;BME280;33517;49.866;8.320;2023-08-12T10:09:03;100632.44;;;25.19;80.11
12868;BME280;33517;49.866;8.320;2023-08-12T10:11:55;100629.56;;;24.73;81.45
12868;BME280;33517;49.866;8.320;2023-08-12T10:14:47;100643.03;;;24.56;81.91
12868;BME280;33517;49.866;8.320;2023-08-12T10:17:40;100634.59;;;24.47;82.42
12868;BME280;33517;49.866;8.320;2023-08-12T10:20:35;100640.16;;;24.41;82.81
12868;BME280;33517;49.866;8.320;2023-08-12T10:23:28;100643.09;;;24.39;82.36
12868;BME280;33517;49.866;8.320;2023-08-12T10:26:22;100621.00;;;23.99;90.02
12868;BME280;33517;49.866;8.320;2023-08-12T10:29:15;100615.63;;;23.44;94.29
12868;BME280;33517;49.866;8.320;2023-08-12T10:32:08;100600.13;;;23.51;91.42
12868;BME280;33517;49.866;8.320;2023-08-12T10:35:00;100607.03;;;23.64;92.81
12868;BME280;33517;49.866;8.320;2023-08-12T10:37:54;100589.97;;;23.53;93.50
12868;BME280;33517;49.866;8.320;2023-08-12T10:40:46;100567.91;;;23.51;91.85
12868;BME280;33517;49.866;8.320;2023-08-12T10:43:49;100575.34;;;23.83;89.10
12868;BME280;33517;49.866;8.320;2023-08-12T10:46:49;100574.88;;;23.69;91.90
12868;BME280;33517;49.866;8.320;2023-08-12T10:49:43;100569.66;;;23.62;91.68
12868;BME280;33517;49.866;8.320;2023-08-12T10:52:35;100556.97;;;23.74;90.17
12868;BME280;33517;49.866;8.320;2023-08-12T10:55:28;100553.47;;;23.96;88.13
12868;BME280;33517;49.866;8.320;2023-08-12T10:58:27;100555.84;;;24.09;87.18
12868;BME280;33517;49.866;8.320;2023-08-12T11:01:20;100565.03;;;24.34;85.76
12868;BME280;33517;49.866;8.320;2023-08-12T11:04:17;100557.19;;;24.54;85.60
12868;BME280;33517;49.866;8.320;2023-08-12T11:07:15;100557.69;;;24.51;85.58
12868;BME280;33517;49.866;8.320;2023-08-12T11:10:11;100549.50;;;24.20;89.86
12868;BME280;33517;49.866;8.320;2023-08-12T11:13:05;100551.19;;;24.26;89.68
12868;BME280;33517;49.866;8.320;2023-08-12T11:16:07;100547.56;;;24.37;88.42
12868;BME280;33517;49.866;8.320;2023-08-12T11:18:59;100528.13;;;24.30;89.62
12868;BME280;33517;49.866;8.320;2023-08-12T11:21:52;100506.09;;;24.59;87.38
12868;BME280;33517;49.866;8.320;2023-08-12T11:24:45;100506.97;;;24.65;86.46
12868;BME280;33517;49.866;8.320;2023-08-12T11:27:40;100501.94;;;24.47;87.14
12868;BME280;33517;49.866;8.320;2023-08-12T11:30:34;100482.03;;;24.48;87.02
12868;BME280;33517;49.866;8.320;2023-08-12T11:33:26;100477.69;;;24.42;86.94
12868;BME280;33517;49.866;8.320;2023-08-12T11:36:19;100496.66;;;24.30;87.61
12868;BME280;33517;49.866;8.320;2023-08-12T11:39:11;100512.91;;;23.97;90.56
12868;BME280;33517;49.866;8.320;2023-08-12T11:42:03;100512.72;;;23.82;91.44
12868;BME280;33517;49.866;8.320;2023-08-12T11:44:55;100526.19;;;23.65;92.22
12868;BME280;33517;49.866;8.320;2023-08-12T11:47:49;100527.97;;;23.60;93.27
12868;BME280;33517;49.866;8.320;2023-08-12T11:50:44;100544.75;;;23.67;92.97
12868;BME280;33517;49.866;8.320;2023-08-12T11:53:36;100544.75;;;23.50;95.28
12868;BME280;33517;49.866;8.320;2023-08-12T11:56:28;100546.50;;;23.40;96.55
12868;BME280;33517;49.866;8.320;2023-08-12T11:59:21;100560.72;;;23.57;95.12
12868;BME280;33517;49.866;8.320;2023-08-12T12:02:13;100560.31;;;23.48;96.42
12868;BME280;33517;49.866;8.320;2023-08-12T12:05:09;100568.06;;;23.61;96.60
12868;BME280;33517;49.866;8.320;2023-08-12T12:08:04;100582.84;;;24.40;93.29
12868;BME280;33517;49.866;8.320;2023-08-12T12:11:03;100594.38;;;25.37;89.73
12868;BME280;33517;49.866;8.320;2023-08-12T12:13:55;100596.38;;;25.94;83.61
12868;BME280;33517;49.866;8.320;2023-08-12T12:16:48;100585.38;;;26.57;82.43
12868;BME280;33517;49.866;8.320;2023-08-12T12:19:41;100580.06;;;27.68;77.68
12868;BME280;33517;49.866;8.320;2023-08-12T12:22:34;100567.66;;;28.99;75.01
12868;BME280;33517;49.866;8.320;2023-08-12T12:25:26;100574.09;;;29.71;71.85
12868;BME280;33517;49.866;8.320;2023-08-12T12:28:18;100586.94;;;29.60;68.79
12868;BME280;33517;49.866;8.320;2023-08-12T12:31:10;100574.94;;;28.50;69.74
12868;BME280;33517;49.866;8.320;2023-08-12T12:34:03;100577.78;;;28.79;70.69
12868;BME280;33517;49.866;8.320;2023-08-12T12:36:55;100574.50;;;29.26;67.85
12868;BME280;33517;49.866;8.320;2023-08-12T12:39:48;100563.25;;;30.18;66.84
12868;BME280;33517;49.866;8.320;2023-08-12T12:42:40;100567.06;;;32.07;59.95
12868;BME280;33517;49.866;8.320;2023-08-12T12:45:32;100561.16;;;33.56;55.98
12868;BME280;33517;49.866;8.320;2023-08-12T12:48:24;100575.28;;;32.42;53.83
12868;BME280;33517;49.866;8.320;2023-08-12T12:51:16;100566.84;;;30.74;57.68
12868;BME280;33517;49.866;8.320;2023-08-12T12:54:07;100572.09;;;30.05;60.65
12868;BME280;33517;49.866;8.320;2023-08-12T12:57:02;100568.84;;;30.03;61.93
12868;BME280;33517;49.866;8.320;2023-08-12T12:59:54;100573.94;;;31.26;58.08
12868;BME280;33517;49.866;8.320;2023-08-12T13:02:46;100575.59;;;31.09;59.19
12868;BME280;33517;49.866;8.320;2023-08-12T13:05:38;100571.19;;;31.77;57.15
12868;BME280;33517;49.866;8.320;2023-08-12T13:08:30;100559.84;;;31.24;58.61
12868;BME280;33517;49.866;8.320;2023-08-12T13:11:22;100549.47;;;30.75;58.60
12868;BME280;33517;49.866;8.320;2023-08-12T13:14:15;100547.47;;;29.16;63.82
12868;BME280;33517;49.866;8.320;2023-08-12T13:17:10;100530.63;;;28.36;66.24
12868;BME280;33517;49.866;8.320;2023-08-12T13:20:02;100538.09;;;28.00;69.24
12868;BME280;33517;49.866;8.320;2023-08-12T13:22:56;100523.88;;;27.45;70.27
12868;BME280;33517;49.866;8.320;2023-08-12T13:25:47;100527.38;;;27.30;71.62
12868;BME280;33517;49.866;8.320;2023-08-12T13:28:39;100517.84;;;27.78;69.59
12868;BME280;33517;49.866;8.320;2023-08-12T13:31:32;100532.16;;;28.03;69.95
12868;BME280;33517;49.866;8.320;2023-08-12T13:34:24;100533.16;;;28.17;69.23
12868;BME280;33517;49.866;8.320;2023-08-12T13:37:16;100521.47;;;28.32;69.32
12868;BME280;33517;49.866;8.320;2023-08-12T13:40:08;100519.19;;;28.49;69.23
12868;BME280;33517;49.866;8.320;2023-08-12T13:43:02;100520.00;;;28.55;70.17
12868;BME280;33517;49.866;8.320;2023-08-12T13:45:54;100515.88;;;28.62;70.25
12868;BME280;33517;49.866;8.320;2023-08-12T13:48:47;100518.88;;;28.94;69.11
12868;BME280;33517;49.866;8.320;2023-08-12T13:51:39;100516.72;;;29.30;67.80
12868;BME280;33517;49.866;8.320;2023-08-12T13:54:31;100518.06;;;29.85;66.61
12868;BME280;33517;49.866;8.320;2023-08-12T13:57:22;100521.03;;;29.31;67.87
12868;BME280;33517;49.866;8.320;2023-08-12T14:00:15;100524.13;;;29.20;68.78
12868;BME280;33517;49.866;8.320;2023-08-12T14:03:07;100514.28;;;28.56;71.28
12868;BME280;33517;49.866;8.320;2023-08-12T14:06:00;100515.34;;;28.06;72.75
12868;BME280;33517;49.866;8.320;2023-08-12T14:08:52;100507.53;;;27.90;74.68
12868;BME280;33517;49.866;8.320;2023-08-12T14:11:43;100497.72;;;28.14;74.05
12868;BME280;33517;49.866;8.320;2023-08-12T14:14:35;100486.72;;;28.44;72.71
12868;BME280;33517;49.866;8.320;2023-08-12T14:17:27;100489.69;;;28.48;72.82
12868;BME280;33517;49.866;8.320;2023-08-12T14:20:19;100493.44;;;28.03;74.95
12868;BME280;33517;49.866;8.320;2023-08-12T14:23:13;100482.19;;;28.30;74.83
12868;BME280;33517;49.866;8.320;2023-08-12T14:26:05;100473.56;;;28.71;73.33
12868;BME280;33517;49.866;8.320;2023-08-12T14:28:57;100457.47;;;29.19;71.67
12868;BME280;33517;49.866;8.320;2023-08-12T14:31:49;100453.84;;;29.28;72.07
12868;BME280;33517;49.866;8.320;2023-08-12T14:34:41;100455.03;;;28.83;73.19
12868;BME280;33517;49.866;8.320;2023-08-12T14:37:35;100449.53;;;28.93;73.08
12868;BME280;33517;49.866;8.320;2023-08-12T14:40:29;100453.28;;;28.97;72.84
12868;BME280;33517;49.866;8.320;2023-08-12T14:43:21;100453.16;;;28.79;72.50
12868;BME280;33517;49.866;8.320;2023-08-12T14:46:12;100449.78;;;28.19;75.26
12868;BME280;33517;49.866;8.320;2023-08-12T14:49:04;100454.50;;;27.99;76.21
12868;BME280;33517;49.866;8.320;2023-08-12T14:51:56;100449.38;;;27.97;76.38
12868;BME280;33517;49.866;8.320;2023-08-12T14:54:49;100453.69;;;27.93;76.06
12868;BME280;33517;49.866;8.320;2023-08-12T14:57:42;100442.00;;;28.08;75.23
12868;BME280;33517;49.866;8.320;2023-08-12T15:00:34;100450.94;;;28.08;74.97